createdAt,value
2023-04-16T00:01:33.893Z,6.23
2023-04-16T00:04:17.150Z,6.16
2023-04-16T00:06:54.055Z,6.11
2023-04-16T00:09:40.994Z,6.02
2023-04-16T00:15:09.665Z,5.84
2023-04-16T00:17:53.081Z,5.83
2023-04-16T00:20:44.477Z,5.79
2023-04-16T00:23:23.028Z,5.83
2023-04-16T00:26:06.491Z,5.69
2023-04-16T00:35:01.088Z,5.61
2023-04-16T00:37:44.355Z,5.60
2023-04-16T00:40:33.690Z,5.65
2023-04-16T00:43:09.833Z,5.68
2023-04-16T00:52:24.818Z,5.63
2023-04-16T00:55:00.226Z,5.60
2023-04-16T01:00:41.148Z,5.59
2023-04-16T01:03:16.384Z,5.58
2023-04-16T01:11:53.475Z,5.68
2023-04-16T01:23:25.870Z,5.61
2023-04-16T01:26:04.739Z,5.64
2023-04-16T01:31:44.435Z,5.68
2023-04-16T01:34:48.708Z,5.69
2023-04-16T01:37:23.809Z,5.70
2023-04-16T01:46:33.160Z,5.69
2023-04-16T01:49:17.289Z,5.68
2023-04-16T01:51:57.157Z,5.67
2023-04-16T01:54:28.966Z,5.64
2023-04-16T01:57:03.910Z,5.65
2023-04-16T01:59:35.461Z,5.61
2023-04-16T02:02:11.798Z,5.64
2023-04-16T02:04:44.400Z,5.67
2023-04-16T02:10:06.525Z,5.63
2023-04-16T02:12:42.311Z,5.71
2023-04-16T02:15:20.807Z,5.75
2023-04-16T02:17:57.994Z,5.72
2023-04-16T02:20:30.349Z,5.73
2023-04-16T02:23:05.056Z,5.75
2023-04-16T02:25:41.680Z,5.75
2023-04-16T02:28:22.014Z,5.76
2023-04-16T02:31:01.456Z,5.78
2023-04-16T02:39:48.495Z,5.80
2023-04-16T02:52:42.990Z,5.67
2023-04-16T02:58:31.925Z,5.69
2023-04-16T03:01:08.212Z,5.77
2023-04-16T03:03:45.802Z,5.73
2023-04-16T03:06:24.572Z,5.70
2023-04-16T03:08:57.291Z,5.71
2023-04-16T03:11:30.737Z,5.73
2023-04-16T03:14:01.842Z,5.63
2023-04-16T03:16:36.344Z,5.62
2023-04-16T03:19:20.584Z,5.57
2023-04-16T03:22:00.837Z,5.57
2023-04-16T03:24:36.718Z,5.58
2023-04-16T03:30:02.016Z,5.58
2023-04-16T03:32:40.238Z,5.54
2023-04-16T03:35:53.778Z,5.49
2023-04-16T03:38:56.753Z,5.51
2023-04-16T03:42:02.065Z,5.50
2023-04-16T03:44:50.767Z,5.48
2023-04-16T03:47:39.566Z,5.55
2023-04-16T03:53:15.323Z,5.48
2023-04-16T03:55:47.450Z,5.46
2023-04-16T03:58:21.506Z,5.45
2023-04-16T04:00:52.961Z,5.49
2023-04-16T04:03:24.026Z,5.32
2023-04-16T04:05:55.141Z,5.27
2023-04-16T04:08:32.346Z,5.26
2023-04-16T04:11:02.999Z,5.23
2023-04-16T04:13:37.519Z,5.24
2023-04-16T04:16:09.281Z,5.23
2023-04-16T04:18:40.323Z,5.24
2023-04-16T04:21:11.760Z,5.29
2023-04-16T04:23:42.763Z,5.27
2023-04-16T04:26:13.889Z,5.31
2023-04-16T04:28:48.685Z,5.42
2023-04-16T04:31:21.780Z,5.27
2023-04-16T04:33:52.532Z,5.33
2023-04-16T04:36:23.508Z,5.28
2023-04-16T04:38:54.618Z,5.28
2023-04-16T04:41:27.626Z,5.39
2023-04-16T04:44:02.071Z,5.32
2023-04-16T04:46:32.929Z,5.38
2023-04-16T04:49:03.609Z,5.35
2023-04-16T04:51:35.503Z,5.37
2023-04-16T04:54:06.191Z,5.47
2023-04-16T04:56:37.138Z,5.54
2023-04-16T04:59:11.319Z,5.57
2023-04-16T05:01:43.264Z,5.62
2023-04-16T05:04:14.861Z,5.68
2023-04-16T05:06:45.306Z,5.79
2023-04-16T05:09:16.324Z,5.84
2023-04-16T05:11:47.318Z,5.87
2023-04-16T05:14:21.648Z,5.94
2023-04-16T05:16:52.934Z,6.03
2023-04-16T05:19:23.786Z,6.10
2023-04-16T05:21:54.549Z,6.13
2023-04-16T05:24:26.390Z,6.25
2023-04-16T05:26:57.118Z,6.28
2023-04-16T05:29:30.844Z,6.40
2023-04-16T05:32:02.335Z,6.51
2023-04-16T05:34:33.197Z,6.54
2023-04-16T05:37:04.161Z,6.63
2023-04-16T05:39:35.001Z,6.65
2023-04-16T05:42:08.553Z,6.86
2023-04-16T05:44:44.106Z,6.76
2023-04-16T05:47:14.552Z,6.75
2023-04-16T05:49:46.857Z,6.81
2023-04-16T05:52:17.368Z,6.86
2023-04-16T05:54:48.300Z,7.03
2023-04-16T05:57:19.448Z,7.00
2023-04-16T05:59:53.055Z,7.05
2023-04-16T06:02:24.365Z,7.17
2023-04-16T06:04:56.064Z,7.10
2023-04-16T06:07:27.283Z,7.29
2023-04-16T06:09:57.981Z,7.42
2023-04-16T06:12:30.156Z,7.51
2023-04-16T06:15:04.848Z,7.56
2023-04-16T06:17:36.500Z,7.63
2023-04-16T06:20:08.263Z,7.58
2023-04-16T06:22:41.908Z,7.68
2023-04-16T06:25:13.516Z,7.58
2023-04-16T07:16:27.371Z,8.25
2023-04-16T07:22:16.177Z,8.17
2023-04-16T07:24:53.338Z,8.17
2023-04-16T07:27:40.084Z,8.09
2023-04-16T07:30:16.556Z,8.14
2023-04-16T07:33:01.294Z,8.14
2023-04-16T07:35:49.333Z,8.26
2023-04-16T07:41:18.976Z,8.38
2023-04-16T07:44:05.721Z,8.45
2023-04-16T07:46:50.343Z,8.60
2023-04-16T07:49:40.514Z,8.83
2023-04-16T07:52:18.473Z,8.96
2023-04-16T07:55:01.028Z,9.19
2023-04-16T08:03:39.832Z,9.54
2023-04-16T08:09:10.532Z,9.65
2023-04-16T08:11:41.898Z,9.61
2023-04-16T08:14:12.872Z,9.56
2023-04-16T08:16:47.058Z,9.52
2023-04-16T08:19:18.220Z,9.47
2023-04-16T08:21:52.074Z,9.93
2023-04-16T08:24:22.870Z,10.10
2023-04-16T08:27:15.446Z,10.24
2023-04-16T08:29:50.863Z,10.76
2023-04-16T08:32:25.716Z,10.80
2023-04-16T08:35:06.197Z,10.63
2023-04-16T08:37:40.463Z,11.05
2023-04-16T08:40:18.238Z,10.82
2023-04-16T08:42:57.740Z,11.15
2023-04-16T08:45:34.946Z,11.56
2023-04-16T08:48:08.499Z,12.03
2023-04-16T08:50:42.189Z,11.52
2023-04-16T08:53:28.393Z,12.05
2023-04-16T08:56:03.874Z,11.67
2023-04-16T08:58:37.387Z,11.81
2023-04-16T09:01:13.190Z,12.58
2023-04-16T09:03:57.400Z,12.62
2023-04-16T09:06:30.297Z,11.80
2023-04-16T09:09:08.626Z,12.13
2023-04-16T09:11:44.812Z,11.71
2023-04-16T09:14:16.890Z,11.75
2023-04-16T09:16:48.959Z,12.08
2023-04-16T09:19:22.409Z,11.88
2023-04-16T09:21:55.355Z,11.72
2023-04-16T09:24:30.278Z,11.81
2023-04-16T09:27:02.191Z,11.94
2023-04-16T09:29:46.282Z,12.00
2023-04-16T09:32:17.829Z,11.82
2023-04-16T09:35:06.132Z,11.88
2023-04-16T09:37:42.073Z,11.98
2023-04-16T09:40:33.710Z,11.98
2023-04-16T09:43:14.045Z,12.20
2023-04-16T09:45:55.584Z,12.35
2023-04-16T09:48:33.483Z,12.46
2023-04-16T09:51:07.798Z,12.81
2023-04-16T09:53:39.699Z,12.64
2023-04-16T09:56:16.147Z,12.77
2023-04-16T09:58:47.962Z,13.17
2023-04-16T10:01:22.000Z,13.11
2023-04-16T10:03:57.053Z,13.27
2023-04-16T10:06:29.479Z,13.13
2023-04-16T10:09:02.510Z,13.34
2023-04-16T10:11:36.823Z,13.53
2023-04-16T10:14:11.414Z,13.45
2023-04-16T10:16:44.595Z,13.69
2023-04-16T10:19:16.128Z,13.86
2023-04-16T10:21:47.116Z,13.82
2023-04-16T10:24:21.574Z,13.82
2023-04-16T10:26:58.241Z,13.76
2023-04-16T10:29:34.700Z,13.97
2023-04-16T10:32:17.574Z,14.33
2023-04-16T10:34:49.921Z,14.40
2023-04-16T10:37:21.836Z,14.46
2023-04-16T10:39:56.999Z,14.01
2023-04-16T10:42:31.772Z,14.21
2023-04-16T10:45:04.708Z,14.12
2023-04-16T10:47:36.737Z,13.97
2023-04-16T10:50:21.046Z,14.30
2023-04-16T10:52:54.893Z,14.31
2023-04-16T10:55:32.745Z,14.33
2023-04-16T10:58:27.835Z,14.47
2023-04-16T11:01:05.819Z,14.67
2023-04-16T11:03:38.812Z,14.75
2023-04-16T11:06:22.082Z,14.66
2023-04-16T11:09:08.516Z,14.84
2023-04-16T11:11:44.130Z,14.77
2023-04-16T11:14:30.698Z,14.78
2023-04-16T11:17:07.340Z,14.97
2023-04-16T11:19:41.268Z,14.96
2023-04-16T11:22:18.821Z,14.88
2023-04-16T11:24:57.432Z,14.96
2023-04-16T11:27:29.557Z,15.33
2023-04-16T11:30:05.166Z,15.49
2023-04-16T11:32:43.760Z,15.86
2023-04-16T11:35:20.231Z,15.42
2023-04-16T11:37:51.969Z,15.22
2023-04-16T11:40:23.560Z,14.93
2023-04-16T11:42:58.691Z,15.05
2023-04-16T11:45:33.675Z,15.18
2023-04-16T11:48:12.062Z,15.68
2023-04-16T11:50:44.700Z,15.72
2023-04-16T11:53:17.258Z,15.74
2023-04-16T11:58:23.915Z,15.47
2023-04-16T12:01:10.977Z,15.34
2023-04-16T12:03:50.068Z,15.43
2023-04-16T12:06:24.515Z,15.56
2023-04-16T12:08:56.177Z,15.75
2023-04-16T12:11:42.741Z,15.69
2023-04-16T12:14:16.964Z,15.54
2023-04-16T12:16:52.342Z,15.27
2023-04-16T12:19:53.482Z,15.23
2023-04-16T12:22:37.275Z,15.09
2023-04-16T12:25:16.313Z,15.30
2023-04-16T12:27:58.518Z,15.09
2023-04-16T12:30:34.008Z,15.08
2023-04-16T12:33:26.976Z,15.02
2023-04-16T12:36:08.290Z,15.17
2023-04-16T12:38:44.726Z,15.19
2023-04-16T12:41:19.992Z,15.34
2023-04-16T12:43:53.609Z,15.42
2023-04-16T12:46:27.457Z,15.29
2023-04-16T12:49:00.596Z,15.43
2023-04-16T12:51:35.449Z,15.73
2023-04-16T12:54:08.818Z,15.72
2023-04-16T12:56:44.156Z,15.79
2023-04-16T12:59:15.559Z,15.72
2023-04-16T13:01:48.128Z,15.70
2023-04-16T13:04:19.791Z,15.41
2023-04-16T13:06:55.469Z,15.38
2023-04-16T13:09:28.349Z,15.24
2023-04-16T13:12:00.741Z,15.47
2023-04-16T13:14:32.287Z,15.34
2023-04-16T13:17:08.412Z,15.57
2023-04-16T13:19:39.512Z,15.46
2023-04-16T13:22:15.215Z,15.60
2023-04-16T13:24:47.768Z,15.80
2023-04-16T13:27:21.263Z,15.56
2023-04-16T13:29:55.731Z,15.65
2023-04-16T13:32:29.664Z,15.54
2023-04-16T13:35:01.242Z,15.69
2023-04-16T13:37:39.253Z,15.36
2023-04-16T13:40:14.173Z,15.44
2023-04-16T13:42:48.330Z,15.51
2023-04-16T13:45:20.847Z,15.39
2023-04-16T13:47:53.905Z,15.37
2023-04-16T13:50:25.221Z,15.45
2023-04-16T13:52:59.062Z,15.45
2023-04-16T13:55:31.795Z,15.70
2023-04-16T13:58:07.840Z,15.60
2023-04-16T14:00:38.959Z,15.48
2023-04-16T14:03:10.400Z,15.68
2023-04-16T14:05:46.552Z,15.63
2023-04-16T14:08:55.422Z,15.61
2023-04-16T14:12:05.307Z,15.81
2023-04-16T14:15:01.670Z,15.67
2023-04-16T14:17:54.340Z,15.69
2023-04-16T14:20:45.931Z,15.85
2023-04-16T14:23:29.862Z,15.91
2023-04-16T14:26:31.915Z,15.71
2023-04-16T14:29:25.660Z,15.64
2023-04-16T14:32:26.317Z,15.79
2023-04-16T14:35:17.574Z,15.90
2023-04-16T14:38:20.890Z,15.94
2023-04-16T14:41:45.464Z,15.96
2023-04-16T14:53:39.813Z,15.74
2023-04-16T14:56:43.298Z,16.06
2023-04-16T14:59:50.767Z,16.04
2023-04-16T15:02:39.260Z,15.97
2023-04-16T15:05:31.932Z,15.96
2023-04-16T15:08:23.633Z,16.00
2023-04-16T15:10:57.301Z,15.86
2023-04-16T15:13:36.375Z,15.88
2023-04-16T15:16:07.545Z,15.99
2023-04-16T15:18:40.500Z,15.78
2023-04-16T15:21:12.582Z,15.59
2023-04-16T15:23:43.090Z,15.54
2023-04-16T15:26:13.251Z,15.56
2023-04-16T15:28:43.457Z,15.52
2023-04-16T15:31:14.308Z,15.67
2023-04-16T15:33:47.330Z,15.50
2023-04-16T15:36:18.453Z,15.70
2023-04-16T15:38:48.730Z,15.71
2023-04-16T15:41:22.058Z,15.65
2023-04-16T15:43:52.442Z,15.69
2023-04-16T15:46:22.746Z,15.52
2023-04-16T15:48:55.591Z,15.67
2023-04-16T15:51:27.442Z,15.53
2023-04-16T15:53:57.872Z,15.66
2023-04-16T15:56:28.728Z,15.69
2023-04-16T15:58:58.893Z,15.49
2023-04-16T16:01:29.126Z,15.54
2023-04-16T16:04:12.020Z,15.41
2023-04-16T16:06:42.534Z,15.36
2023-04-16T16:09:15.618Z,15.35
2023-04-16T16:11:58.171Z,15.30
2023-04-16T16:14:28.570Z,15.24
2023-04-16T16:16:58.792Z,15.12
2023-04-16T16:19:31.867Z,15.08
2023-04-16T16:22:02.400Z,15.02
2023-04-16T16:24:33.056Z,15.01
2023-04-16T16:27:03.255Z,14.93
2023-04-16T16:29:33.516Z,14.80
2023-04-16T16:32:04.399Z,14.81
2023-04-16T16:34:37.658Z,14.81
2023-04-16T16:37:08.085Z,14.85
2023-04-16T16:39:38.961Z,14.65
2023-04-16T16:42:09.552Z,14.67
2023-04-16T16:44:40.117Z,14.61
2023-04-16T16:47:10.412Z,14.50
2023-04-16T16:49:43.815Z,14.43
2023-04-16T16:52:16.939Z,14.50
2023-04-16T16:54:47.132Z,14.34
2023-04-16T16:57:17.516Z,14.26
2023-04-16T16:59:47.879Z,14.13
2023-04-16T17:02:18.174Z,14.08
2023-04-16T17:04:52.118Z,13.93
2023-04-16T17:07:22.396Z,13.81
2023-04-16T17:09:52.701Z,13.77
2023-04-16T17:12:23.881Z,13.72
2023-04-16T17:14:56.135Z,13.69
2023-04-16T17:17:26.548Z,13.68
2023-04-16T17:20:01.416Z,13.57
2023-04-16T17:22:31.940Z,13.54
2023-04-16T17:25:06.310Z,13.65
2023-04-16T17:27:37.335Z,13.47
2023-04-16T17:30:14.965Z,13.41
2023-04-16T17:32:50.597Z,13.35
2023-04-16T17:35:26.470Z,13.27
2023-04-16T17:37:58.518Z,13.26
2023-04-16T17:40:31.738Z,13.16
2023-04-16T17:43:04.293Z,13.17
2023-04-16T17:45:43.909Z,13.12
2023-04-16T17:48:20.574Z,13.05
2023-04-16T17:50:53.534Z,13.11
2023-04-16T17:53:23.724Z,12.98
2023-04-16T17:55:58.551Z,12.86
2023-04-16T17:58:35.355Z,12.96
2023-04-16T18:01:06.510Z,12.96
2023-04-16T18:03:37.415Z,12.86
2023-04-16T18:06:14.232Z,12.82
2023-04-16T18:08:48.818Z,12.80
2023-04-16T18:11:20.761Z,12.78
2023-04-16T18:13:53.107Z,12.79
2023-04-16T18:16:23.470Z,12.80
2023-04-16T18:18:53.781Z,12.66
2023-04-16T18:21:26.598Z,12.68
2023-04-16T18:23:56.869Z,12.62
2023-04-16T18:26:29.713Z,12.64
2023-04-16T18:29:03.917Z,12.54
2023-04-16T18:31:34.362Z,12.52
2023-04-16T18:34:05.562Z,12.51
2023-04-16T18:36:38.777Z,12.38
2023-04-16T18:39:09.200Z,12.33
2023-04-16T18:41:40.334Z,12.26
2023-04-16T18:44:11.168Z,12.19
2023-04-16T18:46:43.112Z,12.18
2023-04-16T18:49:15.682Z,12.11
2023-04-16T18:51:51.304Z,12.04
2023-04-16T18:54:22.384Z,11.96
2023-04-16T18:56:53.468Z,12.00
2023-04-16T18:59:28.523Z,11.95
2023-04-16T19:01:59.687Z,11.90
2023-04-16T19:04:32.614Z,11.84
2023-04-16T19:07:19.022Z,11.79
2023-04-16T19:09:49.310Z,11.75
2023-04-16T19:12:20.117Z,11.65
2023-04-16T19:14:50.328Z,11.70
2023-04-16T19:17:21.053Z,11.65
2023-04-16T19:19:55.221Z,11.67
2023-04-16T19:22:28.018Z,11.61
2023-04-16T19:24:58.238Z,11.53
2023-04-16T19:27:34.410Z,11.57
2023-04-16T19:30:04.935Z,11.50
2023-04-16T19:32:36.880Z,11.41
2023-04-16T19:35:14.366Z,11.40
2023-04-16T19:37:50.744Z,11.31
2023-04-16T19:40:21.432Z,11.30
2023-04-16T19:42:51.866Z,11.28
2023-04-16T19:45:28.457Z,11.22
2023-04-16T19:48:01.716Z,11.24
2023-04-16T19:50:32.195Z,11.21
2023-04-16T19:53:07.387Z,11.17
2023-04-16T19:55:42.210Z,11.15
2023-04-16T19:58:12.875Z,11.10
2023-04-16T20:00:43.827Z,11.11
2023-04-16T20:03:17.423Z,11.11
2023-04-16T20:05:50.742Z,11.11
2023-04-16T20:08:24.687Z,11.08
2023-04-16T20:10:56.674Z,11.11
2023-04-16T20:13:27.012Z,11.03
2023-04-16T20:15:58.101Z,11.05
2023-04-16T20:18:42.177Z,11.06
2023-04-16T20:21:12.853Z,11.06
2023-04-16T20:23:50.087Z,11.06
2023-04-16T20:26:21.290Z,11.01
2023-04-16T20:28:53.530Z,11.01
2023-04-16T20:31:24.359Z,11.03
2023-04-16T20:33:54.754Z,11.04
2023-04-16T20:36:25.106Z,11.03
2023-04-16T20:38:59.644Z,11.03
2023-04-16T20:41:30.861Z,10.99
2023-04-16T20:44:05.422Z,10.99
2023-04-16T20:46:36.602Z,10.96
2023-04-16T20:49:08.058Z,10.92
2023-04-16T20:51:38.645Z,10.98
2023-04-16T20:54:11.589Z,10.98
2023-04-16T20:56:41.868Z,10.98
2023-04-16T20:59:13.507Z,10.96
2023-04-16T21:01:43.736Z,10.93
2023-04-16T21:04:14.093Z,10.94
2023-04-16T21:06:44.389Z,10.92
2023-04-16T21:09:17.172Z,10.86
2023-04-16T21:11:47.463Z,10.85
2023-04-16T21:14:17.750Z,10.82
2023-04-16T21:16:47.972Z,10.80
2023-04-16T21:19:29.120Z,10.79
2023-04-16T21:21:59.490Z,10.74
2023-04-16T21:24:32.322Z,10.76
2023-04-16T21:27:02.597Z,10.71
2023-04-16T21:29:33.015Z,10.75
2023-04-16T21:32:03.316Z,10.71
2023-04-16T21:34:33.651Z,10.69
2023-04-16T21:37:03.986Z,10.66
2023-04-16T21:39:37.082Z,10.62
2023-04-16T21:42:07.403Z,10.75
2023-04-16T21:44:37.599Z,10.65
2023-04-16T21:47:07.925Z,10.58
2023-04-16T21:49:38.170Z,10.58
2023-04-16T21:52:14.380Z,10.63
2023-04-16T21:54:47.530Z,10.65
2023-04-16T21:57:17.740Z,10.62
2023-04-16T21:59:47.933Z,10.70
2023-04-16T22:02:18.346Z,10.69
2023-04-16T22:04:48.998Z,10.64
2023-04-16T22:07:20.879Z,10.71
2023-04-16T22:09:53.696Z,10.71
2023-04-16T22:12:23.885Z,10.79
2023-04-16T22:15:02.509Z,10.75
2023-04-16T22:17:34.378Z,10.75
2023-04-16T22:20:07.119Z,10.72
2023-04-16T22:22:37.390Z,10.65
2023-04-16T22:25:11.104Z,10.72
2023-04-16T22:27:41.458Z,10.64
2023-04-16T22:30:13.427Z,10.68
2023-04-16T22:32:43.623Z,10.65
2023-04-16T22:35:13.870Z,10.65
2023-04-16T22:37:44.059Z,10.61
2023-04-16T22:40:17.040Z,10.61
2023-04-16T22:42:48.005Z,10.60
2023-04-16T22:45:18.678Z,10.64
2023-04-16T22:47:48.975Z,10.62
2023-04-16T22:50:19.665Z,10.54
2023-04-16T22:52:49.840Z,10.53
2023-04-16T22:55:23.185Z,10.50
2023-04-16T22:57:53.422Z,10.37
2023-04-16T23:00:25.179Z,10.35
2023-04-16T23:02:55.526Z,10.28
2023-04-16T23:05:26.113Z,10.25
2023-04-16T23:07:56.273Z,10.25
2023-04-16T23:10:29.052Z,10.20
2023-04-16T23:12:59.270Z,10.19
2023-04-16T23:15:30.891Z,10.17
2023-04-16T23:18:01.361Z,10.16
2023-04-16T23:20:32.388Z,10.15
2023-04-16T23:23:02.582Z,10.12
2023-04-16T23:25:35.443Z,10.07
2023-04-16T23:28:05.664Z,10.03
2023-04-16T23:30:37.889Z,9.99
2023-04-16T23:33:08.171Z,9.96
2023-04-16T23:35:38.376Z,9.87
2023-04-16T23:38:08.571Z,9.95
2023-04-16T23:40:41.471Z,9.80
2023-04-16T23:43:11.759Z,9.85
2023-04-16T23:45:42.096Z,9.82
2023-04-16T23:48:12.407Z,9.79
2023-04-16T23:50:42.706Z,9.72
2023-04-16T23:53:12.916Z,9.70
2023-04-16T23:55:46.907Z,9.72
2023-04-16T23:58:17.204Z,9.66
